createdAt,value
2019-02-11T00:01:07.771Z,93.53
2019-02-11T00:03:34.189Z,93.96
2019-02-11T00:06:00.712Z,93.90
2019-02-11T00:08:27.134Z,94.15
2019-02-11T00:10:53.524Z,93.38
2019-02-11T00:13:19.888Z,93.60
2019-02-11T00:15:46.287Z,93.40
2019-02-11T00:18:12.702Z,93.67
2019-02-11T00:20:39.374Z,94.33
2019-02-11T00:23:05.898Z,94.49
2019-02-11T00:25:32.873Z,94.70
2019-02-11T00:27:59.291Z,94.75
2019-02-11T00:30:25.845Z,95.15
2019-02-11T00:32:52.715Z,95.31
2019-02-11T00:35:19.189Z,95.76
2019-02-11T00:37:47.572Z,95.79
2019-02-11T00:40:14.393Z,95.99
2019-02-11T00:42:41.079Z,96.05
2019-02-11T00:45:12.284Z,96.28
2019-02-11T00:47:38.824Z,96.70
2019-02-11T00:50:14.712Z,96.86
2019-02-11T00:52:41.321Z,97.01
2019-02-11T00:55:07.846Z,97.45
2019-02-11T00:57:34.354Z,97.95
2019-02-11T01:00:00.961Z,98.31
2019-02-11T01:02:27.371Z,98.27
2019-02-11T01:04:53.945Z,98.52
2019-02-11T01:07:20.358Z,98.57
2019-02-11T01:09:46.667Z,98.10
2019-02-11T01:12:13.111Z,97.76
2019-02-11T01:14:39.584Z,97.10
2019-02-11T01:17:06.041Z,96.65
2019-02-11T01:19:32.384Z,96.24
2019-02-11T01:21:58.977Z,95.99
2019-02-11T01:24:25.513Z,95.97
2019-02-11T01:26:52.031Z,95.64
2019-02-11T01:29:18.427Z,95.44
2019-02-11T01:31:45.416Z,95.11
2019-02-11T01:34:11.760Z,94.83
2019-02-11T01:36:38.452Z,94.12
2019-02-11T01:39:05.310Z,94.03
2019-02-11T01:41:31.696Z,93.23
2019-02-11T01:43:58.204Z,93.06
2019-02-11T01:46:24.568Z,92.65
2019-02-11T01:48:51.003Z,91.93
2019-02-11T01:51:17.370Z,91.66
2019-02-11T01:53:43.813Z,91.22
2019-02-11T01:56:10.308Z,91.12
2019-02-11T01:58:36.714Z,90.73
2019-02-11T02:01:03.264Z,90.88
2019-02-11T02:03:29.701Z,90.70
2019-02-11T02:05:56.028Z,90.57
2019-02-11T02:08:22.571Z,90.71
2019-02-11T02:10:49.216Z,90.65
2019-02-11T02:13:15.688Z,89.97
2019-02-11T02:15:42.178Z,89.62
2019-02-11T02:18:08.576Z,89.79
2019-02-11T02:20:34.982Z,88.79
2019-02-11T02:23:01.422Z,89.17
2019-02-11T02:25:27.868Z,89.53
2019-02-11T02:27:54.421Z,90.01
2019-02-11T02:30:20.951Z,90.64
2019-02-11T02:32:47.387Z,90.76
2019-02-11T02:35:13.924Z,90.71
2019-02-11T02:37:40.474Z,90.97
2019-02-11T02:40:08.460Z,91.30
2019-02-11T02:42:35.070Z,91.00
2019-02-11T02:45:01.715Z,90.98
2019-02-11T02:47:28.572Z,91.13
2019-02-11T02:49:55.319Z,91.14
2019-02-11T02:52:21.956Z,91.41
2019-02-11T02:54:48.779Z,91.14
2019-02-11T02:57:15.592Z,91.04
2019-02-11T02:59:42.121Z,91.25
2019-02-11T03:02:08.898Z,91.00
2019-02-11T03:04:35.542Z,91.16
2019-02-11T03:07:02.017Z,91.19
2019-02-11T03:09:29.530Z,91.07
2019-02-11T03:11:56.028Z,91.07
2019-02-11T03:14:23.038Z,91.29
2019-02-11T03:16:49.468Z,90.85
2019-02-11T03:19:16.538Z,91.23
2019-02-11T03:21:43.057Z,91.00
2019-02-11T03:24:09.673Z,91.04
2019-02-11T03:26:36.307Z,90.92
2019-02-11T03:29:02.734Z,91.06
2019-02-11T03:31:29.404Z,91.55
2019-02-11T03:33:55.891Z,91.61
2019-02-11T03:36:22.604Z,91.96
2019-02-11T03:38:48.944Z,92.13
2019-02-11T03:41:15.386Z,92.43
2019-02-11T03:43:41.905Z,92.90
2019-02-11T03:46:08.494Z,92.90
2019-02-11T03:48:34.950Z,93.32
2019-02-11T03:51:01.462Z,93.57
2019-02-11T03:53:28.008Z,93.75
2019-02-11T03:55:54.701Z,93.79
2019-02-11T03:58:21.323Z,93.78
2019-02-11T04:00:47.857Z,93.90
2019-02-11T04:03:14.442Z,93.72
2019-02-11T04:05:41.143Z,93.51
2019-02-11T04:08:07.743Z,93.15
2019-02-11T04:10:34.324Z,92.82
2019-02-11T04:13:00.679Z,92.96
2019-02-11T04:15:27.260Z,92.71
2019-02-11T04:17:56.829Z,92.56
2019-02-11T04:20:23.160Z,93.56
2019-02-11T04:22:49.514Z,93.61
2019-02-11T04:25:15.905Z,93.17
2019-02-11T04:27:42.526Z,92.91
2019-02-11T04:30:09.515Z,92.58
2019-02-11T04:32:36.096Z,92.05
2019-02-11T04:35:04.421Z,91.76
2019-02-11T04:37:31.180Z,91.42
2019-02-11T04:39:57.610Z,90.69
2019-02-11T04:42:24.331Z,90.72
2019-02-11T04:44:50.963Z,89.15
2019-02-11T04:47:17.406Z,87.18
2019-02-11T04:49:44.046Z,87.98
2019-02-11T04:52:10.370Z,87.81
2019-02-11T04:54:36.902Z,87.07
2019-02-11T04:57:03.403Z,86.48
2019-02-11T04:59:29.754Z,85.37
2019-02-11T05:01:56.281Z,84.53
2019-02-11T05:04:22.856Z,84.31
2019-02-11T05:06:49.549Z,84.49
2019-02-11T05:09:16.161Z,84.15
2019-02-11T05:11:42.733Z,83.08
2019-02-11T05:14:47.569Z,83.36
2019-02-11T05:17:13.706Z,82.98
2019-02-11T05:19:44.920Z,83.52
2019-02-11T05:22:12.127Z,82.86
2019-02-11T05:24:38.773Z,83.18
2019-02-11T05:27:05.673Z,83.00
2019-02-11T05:29:32.254Z,83.07
2019-02-11T05:31:58.713Z,82.25
2019-02-11T05:34:25.193Z,82.45
2019-02-11T05:36:51.886Z,82.78
2019-02-11T05:39:18.331Z,83.08
2019-02-11T05:41:44.882Z,83.47
2019-02-11T05:44:11.479Z,83.27
2019-02-11T05:46:38.310Z,83.41
2019-02-11T05:49:05.184Z,83.08
2019-02-11T05:51:33.688Z,83.21
2019-02-11T05:54:00.442Z,83.03
2019-02-11T05:56:28.473Z,83.24
2019-02-11T05:58:55.011Z,83.21
2019-02-11T06:01:21.780Z,83.01
2019-02-11T06:03:49.204Z,82.85
2019-02-11T06:06:16.456Z,83.03
2019-02-11T06:08:43.528Z,83.24
2019-02-11T06:11:10.203Z,83.51
2019-02-11T06:13:36.623Z,83.70
2019-02-11T06:16:03.291Z,83.76
2019-02-11T06:18:30.167Z,82.54
2019-02-11T06:20:57.014Z,82.49
2019-02-11T06:23:23.764Z,81.59
2019-02-11T06:25:50.696Z,81.20
2019-02-11T06:28:17.699Z,81.65
2019-02-11T06:30:46.265Z,81.84
2019-02-11T06:33:12.896Z,82.23
2019-02-11T06:35:39.634Z,81.67
2019-02-11T06:38:06.604Z,81.51
2019-02-11T06:40:33.096Z,81.15
2019-02-11T06:42:59.675Z,81.58
2019-02-11T06:45:26.607Z,81.06
2019-02-11T06:47:53.954Z,81.04
2019-02-11T06:50:21.558Z,81.12
2019-02-11T06:52:48.110Z,81.58
2019-02-11T06:55:14.657Z,81.83
2019-02-11T06:57:41.337Z,81.36
2019-02-11T07:00:12.817Z,81.18
2019-02-11T07:02:39.430Z,80.80
2019-02-11T07:05:06.799Z,80.70
2019-02-11T07:07:33.437Z,80.24
2019-02-11T07:10:00.228Z,80.11
2019-02-11T07:12:27.089Z,79.99
2019-02-11T07:14:53.724Z,79.58
2019-02-11T07:17:20.386Z,79.51
2019-02-11T07:22:58.902Z,79.00
2019-02-11T07:25:26.405Z,78.49
2019-02-11T07:27:53.008Z,78.75
2019-02-11T07:30:19.793Z,78.37
2019-02-11T07:32:46.276Z,78.22
2019-02-11T07:35:13.139Z,77.81
2019-02-11T07:37:39.992Z,77.97
2019-02-11T07:40:09.778Z,78.19
2019-02-11T07:42:40.929Z,77.92
2019-02-11T07:45:11.474Z,78.01
2019-02-11T07:47:38.007Z,78.23
2019-02-11T07:50:05.474Z,78.78
2019-02-11T07:52:32.189Z,78.58
2019-02-11T07:55:00.772Z,79.09
2019-02-11T07:57:27.698Z,79.29
2019-02-11T07:59:54.619Z,80.09
2019-02-11T08:02:21.420Z,80.12
2019-02-11T08:04:48.680Z,80.66
2019-02-11T08:07:15.481Z,81.12
2019-02-11T08:09:42.363Z,81.28
2019-02-11T08:12:09.115Z,81.22
2019-02-11T08:14:35.821Z,81.10
2019-02-11T08:17:02.736Z,81.35
2019-02-11T08:19:29.719Z,81.60
2019-02-11T08:21:59.391Z,82.20
2019-02-11T08:24:25.997Z,81.92
2019-02-11T08:26:53.231Z,81.81
2019-02-11T08:29:20.127Z,82.09
2019-02-11T08:31:46.830Z,82.31
2019-02-11T08:34:13.495Z,82.50
2019-02-11T08:36:40.029Z,82.58
2019-02-11T08:39:08.389Z,82.54
2019-02-11T08:41:35.119Z,82.75
2019-02-11T08:44:02.040Z,82.99
2019-02-11T08:46:28.917Z,82.99
2019-02-11T08:48:55.734Z,82.91
2019-02-11T08:51:22.393Z,83.44
2019-02-11T08:53:49.143Z,83.31
2019-02-11T08:56:16.022Z,84.20
2019-02-11T08:58:42.827Z,83.31
2019-02-11T09:01:09.449Z,82.90
2019-02-11T09:03:36.203Z,82.38
2019-02-11T09:06:03.143Z,81.87
2019-02-11T09:08:31.767Z,81.30
2019-02-11T09:10:58.457Z,80.61
2019-02-11T09:13:25.104Z,78.38
2019-02-11T09:15:55.333Z,78.73
2019-02-11T09:18:20.858Z,78.69
2019-02-11T09:20:47.910Z,78.32
2019-02-11T09:23:14.486Z,78.43
2019-02-11T09:25:44.345Z,78.64
2019-02-11T09:28:11.271Z,78.87
2019-02-11T09:30:37.746Z,79.09
2019-02-11T09:33:04.554Z,78.76
2019-02-11T09:35:31.537Z,78.96
2019-02-11T09:37:57.991Z,79.09
2019-02-11T09:40:24.722Z,78.71
2019-02-11T09:42:51.577Z,79.11
2019-02-11T09:45:24.094Z,79.60
2019-02-11T09:47:51.196Z,80.75
2019-02-11T09:50:24.629Z,80.89
2019-02-11T09:52:52.412Z,80.38
2019-02-11T09:55:21.721Z,79.71
2019-02-11T09:57:48.966Z,79.38
2019-02-11T10:00:16.172Z,78.21
2019-02-11T10:03:02.215Z,77.16
2019-02-11T10:05:28.278Z,76.59
2019-02-11T10:08:02.570Z,75.89
2019-02-11T10:10:29.283Z,75.40
2019-02-11T10:12:56.245Z,74.41
2019-02-11T10:15:23.635Z,73.55
2019-02-11T10:17:50.414Z,72.88
2019-02-11T10:20:17.027Z,73.56
2019-02-11T10:22:44.218Z,74.97
2019-02-11T10:25:14.040Z,75.71
2019-02-11T10:27:41.496Z,75.67
2019-02-11T10:30:10.903Z,76.26
2019-02-11T10:32:37.293Z,76.91
2019-02-11T10:35:05.610Z,77.48
2019-02-11T10:37:32.174Z,77.42
2019-02-11T10:40:10.073Z,77.57
2019-02-11T10:42:36.613Z,75.77
2019-02-11T10:45:05.042Z,76.90
2019-02-11T10:47:31.499Z,75.72
2019-02-11T10:49:57.915Z,75.87
2019-02-11T10:52:24.601Z,75.36
2019-02-11T10:54:51.414Z,75.16
2019-02-11T10:57:18.259Z,75.56
2019-02-11T10:59:44.805Z,75.97
2019-02-11T11:02:11.456Z,74.80
2019-02-11T11:04:37.943Z,74.97
2019-02-11T11:07:04.561Z,74.74
2019-02-11T11:09:31.441Z,74.88
2019-02-11T11:11:57.938Z,74.30
2019-02-11T11:14:24.558Z,73.81
2019-02-11T11:16:51.041Z,73.52
2019-02-11T11:19:18.666Z,73.28
2019-02-11T11:21:45.075Z,73.24
2019-02-11T11:24:11.628Z,73.25
2019-02-11T11:26:38.515Z,73.01
2019-02-11T11:29:06.051Z,73.21
2019-02-11T11:31:32.846Z,72.95
2019-02-11T11:33:59.878Z,73.16
2019-02-11T11:36:26.877Z,72.89
2019-02-11T11:38:56.593Z,72.33
2019-02-11T11:41:23.666Z,72.81
2019-02-11T11:43:50.406Z,72.67
2019-02-11T11:46:16.647Z,72.46
2019-02-11T11:48:44.007Z,72.72
2019-02-11T11:51:10.849Z,72.34
2019-02-11T11:53:37.589Z,72.63
2019-02-11T11:56:05.298Z,71.87
2019-02-11T11:58:32.320Z,72.21
2019-02-11T12:00:59.460Z,72.08
2019-02-11T12:03:26.303Z,72.31
2019-02-11T12:05:53.144Z,72.51
2019-02-11T12:08:19.898Z,71.69
2019-02-11T12:10:46.714Z,72.42
2019-02-11T12:13:22.507Z,72.09
2019-02-11T12:15:42.057Z,72.53
2019-02-11T12:18:08.585Z,71.83
2019-02-11T12:20:35.149Z,72.41
2019-02-11T12:23:01.966Z,72.66
2019-02-11T12:25:28.848Z,72.47
2019-02-11T12:27:55.411Z,72.62
2019-02-11T12:30:24.267Z,72.56
2019-02-11T12:32:54.323Z,72.50
2019-02-11T12:35:19.355Z,72.50
2019-02-11T12:37:45.846Z,72.95
2019-02-11T12:40:12.463Z,72.98
2019-02-11T12:42:39.037Z,73.56
2019-02-11T12:45:09.371Z,72.97
2019-02-11T12:47:36.050Z,73.33
2019-02-11T12:50:06.769Z,73.16
2019-02-11T12:52:33.301Z,73.27
2019-02-11T12:55:07.619Z,72.64
2019-02-11T12:57:32.676Z,73.20
2019-02-11T12:59:59.146Z,72.40
2019-02-11T13:02:25.620Z,72.41
2019-02-11T13:04:52.285Z,72.39
2019-02-11T13:07:19.982Z,71.89
2019-02-11T13:09:46.643Z,72.22
2019-02-11T13:12:13.303Z,71.59
2019-02-11T13:14:39.865Z,71.86
2019-02-11T13:17:15.447Z,71.57
2019-02-11T13:19:34.865Z,71.72
2019-02-11T13:22:01.455Z,71.73
2019-02-11T13:24:28.198Z,71.71
2019-02-11T13:26:54.830Z,71.91
2019-02-11T13:29:21.279Z,72.43
2019-02-11T13:31:48.203Z,73.25
2019-02-11T13:34:14.980Z,72.83
2019-02-11T13:36:41.430Z,72.01
2019-02-11T13:39:07.952Z,70.92
2019-02-11T13:41:34.673Z,70.64
2019-02-11T13:44:01.913Z,71.14
2019-02-11T13:46:28.367Z,70.34
2019-02-11T13:48:55.287Z,69.95
2019-02-11T13:51:21.730Z,69.40
2019-02-11T13:53:48.544Z,68.65
2019-02-11T13:56:15.207Z,67.32
2019-02-11T13:58:41.929Z,67.96
2019-02-11T14:01:09.965Z,66.50
2019-02-11T14:03:36.839Z,66.02
2019-02-11T14:06:03.949Z,65.94
2019-02-11T14:08:30.584Z,66.14
2019-02-11T14:10:57.117Z,66.97
2019-02-11T14:13:23.740Z,67.55
2019-02-11T14:15:50.586Z,69.07
2019-02-11T14:18:17.228Z,67.95
2019-02-11T14:20:44.013Z,68.28
2019-02-11T14:23:10.633Z,68.06
2019-02-11T14:25:43.542Z,68.54
2019-02-11T14:28:06.012Z,68.65
2019-02-11T14:30:32.518Z,68.20
2019-02-11T14:32:59.319Z,68.12
2019-02-11T14:35:25.894Z,68.55
2019-02-11T14:37:52.575Z,67.98
2019-02-11T14:40:19.174Z,69.25
2019-02-11T14:42:45.805Z,69.28
2019-02-11T14:45:18.068Z,69.47
2019-02-11T14:47:44.937Z,68.46
2019-02-11T14:50:11.614Z,69.40
2019-02-11T14:52:38.302Z,70.23
2019-02-11T14:55:07.340Z,70.29
2019-02-11T14:57:33.780Z,70.03
2019-02-11T15:00:00.346Z,68.43
2019-02-11T15:02:27.375Z,69.15
2019-02-11T15:04:54.006Z,68.41
2019-02-11T15:07:20.578Z,68.45
2019-02-11T15:09:47.375Z,68.27
2019-02-11T15:12:14.085Z,67.84
2019-02-11T15:14:40.753Z,67.98
2019-02-11T15:17:07.597Z,67.84
2019-02-11T15:19:34.272Z,67.80
2019-02-11T15:22:01.035Z,68.05
2019-02-11T15:24:27.731Z,68.50
2019-02-11T15:26:53.972Z,68.38
2019-02-11T15:29:20.489Z,68.62
2019-02-11T15:31:47.226Z,69.37
2019-02-11T15:34:13.961Z,69.24
2019-02-11T15:36:41.116Z,69.63
2019-02-11T15:39:09.305Z,69.84
2019-02-11T15:45:00.497Z,69.35
2019-02-11T15:47:27.486Z,68.92
2019-02-11T15:49:54.205Z,69.04
2019-02-11T15:52:22.139Z,67.72
2019-02-11T15:54:49.029Z,68.07
2019-02-11T15:57:15.563Z,68.50
2019-02-11T15:59:42.096Z,69.16
2019-02-11T16:02:08.759Z,70.11
2019-02-11T16:04:35.221Z,68.60
2019-02-11T16:07:02.033Z,68.94
2019-02-11T16:09:28.551Z,69.30
2019-02-11T16:11:55.931Z,69.68
2019-02-11T16:14:22.656Z,70.07
2019-02-11T16:16:49.763Z,70.49
2019-02-11T16:19:16.182Z,70.68
2019-02-11T16:21:42.987Z,70.86
2019-02-11T16:24:09.863Z,71.05
2019-02-11T16:26:36.296Z,70.81
2019-02-11T16:29:03.005Z,70.66
2019-02-11T16:31:29.640Z,70.36
2019-02-11T16:33:56.174Z,70.40
2019-02-11T16:36:22.510Z,70.55
2019-02-11T16:38:49.739Z,70.27
2019-02-11T16:41:16.375Z,69.61
2019-02-11T16:43:42.947Z,69.79
2019-02-11T16:46:09.664Z,69.57
2019-02-11T16:48:36.296Z,69.44
2019-02-11T16:51:02.808Z,70.31
2019-02-11T16:53:29.048Z,70.44
2019-02-11T16:55:55.403Z,70.74
2019-02-11T16:58:21.815Z,69.92
2019-02-11T17:00:48.258Z,70.61
2019-02-11T17:03:15.127Z,70.24
2019-02-11T17:05:41.556Z,70.56
2019-02-11T17:08:08.043Z,70.37
2019-02-11T17:10:34.579Z,70.82
2019-02-11T17:13:01.293Z,70.71
2019-02-11T17:15:28.508Z,70.48
2019-02-11T17:17:54.968Z,70.10
2019-02-11T17:20:21.287Z,70.24
2019-02-11T17:22:47.831Z,69.73
2019-02-11T17:25:16.693Z,70.45
2019-02-11T17:27:43.613Z,69.48
2019-02-11T17:30:25.460Z,68.66
2019-02-11T17:32:52.066Z,68.45
2019-02-11T17:35:18.605Z,67.71
2019-02-11T17:37:44.950Z,67.86
2019-02-11T17:40:13.032Z,67.60
2019-02-11T17:42:39.634Z,67.48
2019-02-11T17:45:12.235Z,67.89
2019-02-11T17:47:38.633Z,68.41
2019-02-11T17:50:12.892Z,68.86
2019-02-11T17:52:39.429Z,69.96
2019-02-11T17:55:08.831Z,68.46
2019-02-11T17:57:35.351Z,69.95
2019-02-11T18:00:02.312Z,71.05
2019-02-11T18:02:28.824Z,72.29
2019-02-11T18:04:56.732Z,73.46
2019-02-11T18:07:25.290Z,74.57
2019-02-11T18:09:51.816Z,75.88
2019-02-11T18:15:29.129Z,76.76
2019-02-11T18:17:55.669Z,77.18
2019-02-11T18:23:07.170Z,78.08
2019-02-11T18:29:08.759Z,78.85
2019-02-11T18:37:46.404Z,78.47
2019-02-11T18:40:22.378Z,78.50
2019-02-11T18:45:59.990Z,78.22
2019-02-11T18:48:51.145Z,78.09
2019-02-11T18:51:17.626Z,77.87
2019-02-11T18:53:44.045Z,77.68
2019-02-11T18:56:10.474Z,77.21
2019-02-11T18:58:36.812Z,76.69
2019-02-11T19:01:03.267Z,76.71
2019-02-11T19:06:54.557Z,76.74
2019-02-11T19:12:31.978Z,76.32
2019-02-11T19:18:22.384Z,75.84
2019-02-11T19:20:48.676Z,75.26
2019-02-11T19:23:15.174Z,75.15
2019-02-11T19:25:42.023Z,75.18
2019-02-11T19:28:08.615Z,74.71
2019-02-11T19:30:34.975Z,73.72
2019-02-11T19:33:01.432Z,73.07
2019-02-11T19:38:39.842Z,71.54
2019-02-11T19:41:06.584Z,71.18
2019-02-11T19:43:32.861Z,71.36
2019-02-11T19:45:59.256Z,70.65
2019-02-11T19:48:25.875Z,70.70
2019-02-11T19:50:52.143Z,70.22
2019-02-11T19:53:18.657Z,70.49
2019-02-11T19:55:45.020Z,70.43
2019-02-11T19:58:11.423Z,70.91
2019-02-11T20:04:13.208Z,78.98
2019-02-11T20:10:07.828Z,73.73
2019-02-11T20:12:34.570Z,67.01
2019-02-11T20:15:00.896Z,68.63
2019-02-11T20:20:38.300Z,70.43
2019-02-11T20:23:04.636Z,70.88
2019-02-11T20:25:30.947Z,71.40
2019-02-11T20:27:57.273Z,72.07
2019-02-11T20:30:28.343Z,72.01
2019-02-11T20:32:55.032Z,72.33
2019-02-11T20:35:21.433Z,72.82
2019-02-11T20:40:59.334Z,75.59
2019-02-11T20:46:49.135Z,77.43
2019-02-11T20:49:15.582Z,77.42
2019-02-11T20:51:41.977Z,77.01
2019-02-11T20:54:08.328Z,76.87
2019-02-11T20:56:34.740Z,76.19
2019-02-11T20:59:01.069Z,75.71
2019-02-11T21:05:06.167Z,75.64
2019-02-11T21:07:32.439Z,75.55
2019-02-11T21:09:58.959Z,75.30
2019-02-11T21:12:25.272Z,75.37
2019-02-11T21:18:15.796Z,76.71
2019-02-11T21:20:44.480Z,76.90
2019-02-11T21:23:10.821Z,76.36
2019-02-11T21:25:37.035Z,76.59
2019-02-11T21:28:03.884Z,76.70
2019-02-11T21:30:30.353Z,76.39
2019-02-11T21:32:56.650Z,76.45
2019-02-11T21:35:23.724Z,76.38
2019-02-11T21:37:50.212Z,76.58
2019-02-11T21:40:16.767Z,76.15
2019-02-11T21:42:44.562Z,76.58
2019-02-11T21:45:12.999Z,77.03
2019-02-11T21:47:39.533Z,77.02
2019-02-11T21:50:08.955Z,77.46
2019-02-11T21:52:35.490Z,78.10
2019-02-11T21:55:02.253Z,78.19
2019-02-11T21:57:28.781Z,78.58
2019-02-11T21:59:55.288Z,79.16
2019-02-11T22:02:22.029Z,79.17
2019-02-11T22:04:48.336Z,79.29
2019-02-11T22:07:14.565Z,79.72
2019-02-11T22:09:41.305Z,80.37
2019-02-11T22:12:07.687Z,81.00
2019-02-11T22:14:34.128Z,81.56
2019-02-11T22:17:00.421Z,81.74
2019-02-11T22:19:26.979Z,81.81
2019-02-11T22:21:53.494Z,81.84
2019-02-11T22:24:20.341Z,82.42
2019-02-11T22:26:48.714Z,82.58
2019-02-11T22:29:15.281Z,82.92
2019-02-11T22:31:41.786Z,83.62
2019-02-11T22:34:08.105Z,84.08
2019-02-11T22:36:34.570Z,84.14
2019-02-11T22:39:01.061Z,84.39
2019-02-11T22:41:27.407Z,84.29
2019-02-11T22:43:53.761Z,84.70
2019-02-11T22:46:20.912Z,85.34
2019-02-11T22:48:47.539Z,85.35
2019-02-11T22:51:14.175Z,85.05
2019-02-11T22:53:40.794Z,84.95
2019-02-11T22:56:07.185Z,85.30
2019-02-11T22:58:33.589Z,85.44
2019-02-11T23:01:04.104Z,85.64
2019-02-11T23:03:30.385Z,85.44
2019-02-11T23:05:56.948Z,85.50
2019-02-11T23:08:23.394Z,85.42
2019-02-11T23:10:51.141Z,85.39
2019-02-11T23:13:17.612Z,84.98
2019-02-11T23:15:44.771Z,84.69
2019-02-11T23:18:11.430Z,84.57
2019-02-11T23:20:37.843Z,84.50
2019-02-11T23:23:04.541Z,84.19
2019-02-11T23:25:31.118Z,85.05
2019-02-11T23:27:57.748Z,85.15
2019-02-11T23:30:24.293Z,84.54
2019-02-11T23:32:50.985Z,84.25
2019-02-11T23:35:17.199Z,84.24
2019-02-11T23:37:43.663Z,83.86
2019-02-11T23:40:10.303Z,83.95
2019-02-11T23:42:36.926Z,83.92
2019-02-11T23:45:10.612Z,83.74
2019-02-11T23:47:37.206Z,83.68
2019-02-11T23:50:06.679Z,83.67
2019-02-11T23:52:33.500Z,83.58
2019-02-11T23:55:00.365Z,83.88
2019-02-11T23:57:28.199Z,83.86
2019-02-11T23:59:54.888Z,83.37
